sensor_id;sensor_type;location;lat;lon;timestamp;pressure;altitude;pressure_sealevel;temperature;humidity
23616;BME280;11985;49.404;7.734;2022-10-26T00:01:43;97249.00;;;11.59;100.00
23616;BME280;11985;49.404;7.734;2022-10-26T00:03:46;97244.75;;;11.58;100.00
23616;BME280;11985;49.404;7.734;2022-10-26T00:05:48;97251.84;;;11.58;100.00
23616;BME280;11985;49.404;7.734;2022-10-26T00:07:49;97246.81;;;11.56;100.00
23616;BME280;11985;49.404;7.734;2022-10-26T00:09:51;97246.81;;;11.56;100.00
23616;BME280;11985;49.404;7.734;2022-10-26T00:11:52;97243.53;;;11.54;100.00
23616;BME280;11985;49.404;7.734;2022-10-26T00:13:54;97239.09;;;11.55;100.00
23616;BME280;11985;49.404;7.734;2022-10-26T00:15:56;97236.66;;;11.53;100.00
23616;BME280;11985;49.404;7.734;2022-10-26T00:17:57;97230.59;;;11.53;100.00
23616;BME280;11985;49.404;7.734;2022-10-26T00:20:00;97231.38;;;11.53;100.00
23616;BME280;11985;49.404;7.734;2022-10-26T00:22:01;97230.59;;;11.53;100.00
23616;BME280;11985;49.404;7.734;2022-10-26T00:24:03;97225.53;;;11.51;100.00
23616;BME280;11985;49.404;7.734;2022-10-26T00:26:05;97221.28;;;11.50;100.00
23616;BME280;11985;49.404;7.734;2022-10-26T00:28:07;97220.88;;;11.47;100.00
23616;BME280;11985;49.404;7.734;2022-10-26T00:30:08;97232.69;;;11.44;100.00
23616;BME280;11985;49.404;7.734;2022-10-26T00:32:10;97229.00;;;11.45;100.00
23616;BME280;11985;49.404;7.734;2022-10-26T00:34:12;97226.97;;;11.47;100.00
23616;BME280;11985;49.404;7.734;2022-10-26T00:36:15;97229.81;;;11.46;100.00
23616;BME280;11985;49.404;7.734;2022-10-26T00:38:17;97226.97;;;11.47;100.00
23616;BME280;11985;49.404;7.734;2022-10-26T00:40:19;97230.63;;;11.46;100.00
23616;BME280;11985;49.404;7.734;2022-10-26T00:42:21;97225.34;;;11.46;100.00
23616;BME280;11985;49.404;7.734;2022-10-26T00:44:55;97224.94;;;11.49;100.00
23616;BME280;11985;49.404;7.734;2022-10-26T00:46:58;97225.94;;;11.48;100.00
23616;BME280;11985;49.404;7.734;2022-10-26T00:49:02;97225.34;;;11.46;100.00
23616;BME280;11985;49.404;7.734;2022-10-26T00:51:08;97220.66;;;11.48;100.00
23616;BME280;11985;49.404;7.734;2022-10-26T00:53:14;97218.03;;;11.48;100.00
23616;BME280;11985;49.404;7.734;2022-10-26T00:55:19;97214.38;;;11.49;100.00
23616;BME280;11985;49.404;7.734;2022-10-26T00:57:22;97217.63;;;11.51;100.00
23616;BME280;11985;49.404;7.734;2022-10-26T00:59:23;97211.53;;;11.51;100.00
23616;BME280;11985;49.404;7.734;2022-10-26T01:01:25;97212.34;;;11.51;100.00
23616;BME280;11985;49.404;7.734;2022-10-26T01:03:27;97209.13;;;11.49;100.00
23616;BME280;11985;49.404;7.734;2022-10-26T01:05:31;97216.81;;;11.51;100.00
23616;BME280;11985;49.404;7.734;2022-10-26T01:07:33;97210.50;;;11.52;100.00
23616;BME280;11985;49.404;7.734;2022-10-26T01:09:37;97203.63;;;11.51;100.00
23616;BME280;11985;49.404;7.734;2022-10-26T01:11:38;97201.56;;;11.53;100.00
23616;BME280;11985;49.404;7.734;2022-10-26T01:13:41;97197.53;;;11.50;100.00
23616;BME280;11985;49.404;7.734;2022-10-26T01:15:50;97200.19;;;11.50;100.00
23616;BME280;11985;49.404;7.734;2022-10-26T01:18:03;97202.59;;;11.52;100.00
23616;BME280;11985;49.404;7.734;2022-10-26T01:22:56;97216.00;;;11.50;100.00
23616;BME280;11985;49.404;7.734;2022-10-26T01:25:11;97207.47;;;11.48;100.00
23616;BME280;11985;49.404;7.734;2022-10-26T01:27:31;97218.84;;;11.49;100.00
23616;BME280;11985;49.404;7.734;2022-10-26T01:29:49;97209.53;;;11.46;100.00
23616;BME280;11985;49.404;7.734;2022-10-26T01:31:57;97215.59;;;11.47;100.00
23616;BME280;11985;49.404;7.734;2022-10-26T01:34:04;97211.94;;;11.48;100.00
23616;BME280;11985;49.404;7.734;2022-10-26T01:36:12;97215.19;;;11.50;100.00
23616;BME280;11985;49.404;7.734;2022-10-26T01:38:21;97206.25;;;11.51;100.00
23616;BME280;11985;49.404;7.734;2022-10-26T01:40:29;97200.97;;;11.51;100.00
23616;BME280;11985;49.404;7.734;2022-10-26T01:42:36;97200.19;;;11.50;100.00
23616;BME280;11985;49.404;7.734;2022-10-26T01:44:45;97202.81;;;11.50;100.00
23616;BME280;11985;49.404;7.734;2022-10-26T01:46:50;97189.00;;;11.48;100.00
23616;BME280;11985;49.404;7.734;2022-10-26T01:48:57;97194.28;;;11.48;100.00
23616;BME280;11985;49.404;7.734;2022-10-26T01:51:00;97202.19;;;11.48;100.00
23616;BME280;11985;49.404;7.734;2022-10-26T01:53:04;97192.91;;;11.46;100.00
23616;BME280;11985;49.404;7.734;2022-10-26T01:57:50;97193.53;;;11.41;100.00
23616;BME280;11985;49.404;7.734;2022-10-26T02:00:03;97192.94;;;11.39;100.00
23616;BME280;11985;49.404;7.734;2022-10-26T02:02:29;97194.38;;;11.35;100.00
23616;BME280;11985;49.404;7.734;2022-10-26T02:04:40;97186.69;;;11.33;100.00
23616;BME280;11985;49.404;7.734;2022-10-26T02:06:52;97184.84;;;11.34;100.00
23616;BME280;11985;49.404;7.734;2022-10-26T02:09:07;97185.66;;;11.34;100.00
23616;BME280;11985;49.404;7.734;2022-10-26T02:11:22;97191.16;;;11.33;100.00
23616;BME280;11985;49.404;7.734;2022-10-26T02:13:29;97193.78;;;11.33;100.00
23616;BME280;11985;49.404;7.734;2022-10-26T02:15:37;97196.22;;;11.34;100.00
23616;BME280;11985;49.404;7.734;2022-10-26T02:17:45;97198.41;;;11.37;100.00
23616;BME280;11985;49.404;7.734;2022-10-26T02:19:53;97198.41;;;11.37;100.00
23616;BME280;11985;49.404;7.734;2022-10-26T02:22:04;97192.34;;;11.37;100.00
23616;BME280;11985;49.404;7.734;2022-10-26T02:24:11;97194.16;;;11.36;100.00
23616;BME280;11985;49.404;7.734;2022-10-26T02:26:18;97201.03;;;11.37;100.00
23616;BME280;11985;49.404;7.734;2022-10-26T02:28:24;97213.66;;;11.35;100.00
23616;BME280;11985;49.404;7.734;2022-10-26T02:30:29;97219.31;;;11.39;100.00
23616;BME280;11985;49.404;7.734;2022-10-26T02:32:34;97208.97;;;11.37;100.00
23616;BME280;11985;49.404;7.734;2022-10-26T02:34:38;97189.50;;;11.39;100.00
23616;BME280;11985;49.404;7.734;2022-10-26T02:36:46;97181.78;;;11.37;100.00
23616;BME280;11985;49.404;7.734;2022-10-26T02:38:50;97201.47;;;11.34;100.00
23616;BME280;11985;49.404;7.734;2022-10-26T02:40:54;97213.47;;;11.30;100.00
23616;BME280;11985;49.404;7.734;2022-10-26T02:42:59;97212.25;;;11.26;100.00
23616;BME280;11985;49.404;7.734;2022-10-26T02:45:07;97230.53;;;11.21;100.00
23616;BME280;11985;49.404;7.734;2022-10-26T02:47:11;97220.22;;;11.20;100.00
23616;BME280;11985;49.404;7.734;2022-10-26T02:49:13;97231.56;;;11.20;100.00
23616;BME280;11985;49.404;7.734;2022-10-26T02:51:15;97230.34;;;11.23;100.00
23616;BME280;11985;49.404;7.734;2022-10-26T02:53:24;97229.31;;;11.24;100.00
23616;BME280;11985;49.404;7.734;2022-10-26T02:55:31;97223.84;;;11.25;100.00
23616;BME280;11985;49.404;7.734;2022-10-26T02:57:37;97216.94;;;11.24;100.00
23616;BME280;11985;49.404;7.734;2022-10-26T02:59:42;97214.09;;;11.26;100.00
23616;BME280;11985;49.404;7.734;2022-10-26T03:01:47;97213.28;;;11.25;100.00
23616;BME280;11985;49.404;7.734;2022-10-26T03:03:48;97213.50;;;11.24;100.00
23616;BME280;11985;49.404;7.734;2022-10-26T03:05:50;97207.03;;;11.20;100.00
23616;BME280;11985;49.404;7.734;2022-10-26T03:07:52;97213.34;;;11.19;100.00
23616;BME280;11985;49.404;7.734;2022-10-26T03:09:55;97217.78;;;11.18;100.00
23616;BME280;11985;49.404;7.734;2022-10-26T03:11:56;97217.00;;;11.18;100.00
23616;BME280;11985;49.404;7.734;2022-10-26T03:13:58;97213.75;;;11.16;100.00
23616;BME280;11985;49.404;7.734;2022-10-26T03:16:00;97206.44;;;11.18;100.00
23616;BME280;11985;49.404;7.734;2022-10-26T03:18:01;97202.38;;;11.22;100.00
23616;BME280;11985;49.404;7.734;2022-10-26T03:20:04;97204.00;;;11.23;100.00
23616;BME280;11985;49.404;7.734;2022-10-26T03:22:06;97201.34;;;11.23;100.00
23616;BME280;11985;49.404;7.734;2022-10-26T03:24:07;97197.91;;;11.22;100.00
23616;BME280;11985;49.404;7.734;2022-10-26T03:26:10;97209.25;;;11.23;100.00
23616;BME280;11985;49.404;7.734;2022-10-26T03:28:12;97200.72;;;11.21;100.00
23616;BME280;11985;49.404;7.734;2022-10-26T03:30:14;97192.25;;;11.19;100.00
23616;BME280;11985;49.404;7.734;2022-10-26T03:32:15;97193.25;;;11.18;100.00
23616;BME280;11985;49.404;7.734;2022-10-26T03:34:17;97195.72;;;11.13;100.00
23616;BME280;11985;49.404;7.734;2022-10-26T03:36:18;97196.34;;;11.08;100.00
23616;BME280;11985;49.404;7.734;2022-10-26T03:38:20;97188.88;;;11.05;100.00
23616;BME280;11985;49.404;7.734;2022-10-26T03:40:22;97192.94;;;11.01;100.00
23616;BME280;11985;49.404;7.734;2022-10-26T03:42:24;97186.69;;;10.95;100.00
23616;BME280;11985;49.404;7.734;2022-10-26T03:44:27;97185.88;;;10.88;100.00
23616;BME280;11985;49.404;7.734;2022-10-26T03:46:28;97196.84;;;10.85;100.00
23616;BME280;11985;49.404;7.734;2022-10-26T03:48:30;97186.72;;;10.82;100.00
23616;BME280;11985;49.404;7.734;2022-10-26T03:50:31;97176.63;;;10.79;100.00
23616;BME280;11985;49.404;7.734;2022-10-26T03:52:33;97166.88;;;10.79;100.00
23616;BME280;11985;49.404;7.734;2022-10-26T03:54:34;97167.69;;;10.80;100.00
23616;BME280;11985;49.404;7.734;2022-10-26T03:56:36;97176.81;;;10.84;100.00
23616;BME280;11985;49.404;7.734;2022-10-26T03:58:39;97175.34;;;10.88;100.00
23616;BME280;11985;49.404;7.734;2022-10-26T04:00:40;97180.59;;;10.95;100.00
23616;BME280;11985;49.404;7.734;2022-10-26T04:02:42;97191.13;;;11.01;100.00
23616;BME280;11985;49.404;7.734;2022-10-26T04:04:45;97180.31;;;11.09;100.00
23616;BME280;11985;49.404;7.734;2022-10-26T04:06:47;97185.75;;;11.15;100.00
23616;BME280;11985;49.404;7.734;2022-10-26T04:08:48;97182.72;;;11.18;100.00
23616;BME280;11985;49.404;7.734;2022-10-26T04:10:50;97176.84;;;11.16;100.00
23616;BME280;11985;49.404;7.734;2022-10-26T04:12:52;97179.31;;;11.10;100.00
23616;BME280;11985;49.404;7.734;2022-10-26T04:14:55;97170.22;;;11.06;100.00
23616;BME280;11985;49.404;7.734;2022-10-26T04:16:58;97183.78;;;11.03;100.00
23616;BME280;11985;49.404;7.734;2022-10-26T04:18:59;97184.22;;;11.00;100.00
23616;BME280;11985;49.404;7.734;2022-10-26T04:21:01;97183.63;;;10.98;100.00
23616;BME280;11985;49.404;7.734;2022-10-26T04:23:05;97183.84;;;10.97;100.00
23616;BME280;11985;49.404;7.734;2022-10-26T04:25:07;97182.63;;;10.93;100.00
23616;BME280;11985;49.404;7.734;2022-10-26T04:27:09;97183.06;;;10.90;100.00
23616;BME280;11985;49.404;7.734;2022-10-26T04:29:11;97177.97;;;10.88;100.00
23616;BME280;11985;49.404;7.734;2022-10-26T04:31:14;97181.06;;;10.85;100.00
23616;BME280;11985;49.404;7.734;2022-10-26T04:33:15;97181.44;;;10.82;100.00
23616;BME280;11985;49.404;7.734;2022-10-26T04:35:17;97182.47;;;10.81;100.00
23616;BME280;11985;49.404;7.734;2022-10-26T04:37:18;97180.28;;;10.78;100.00
23616;BME280;11985;49.404;7.734;2022-10-26T04:39:20;97182.28;;;10.76;100.00
23616;BME280;11985;49.404;7.734;2022-10-26T04:41:21;97181.47;;;10.75;100.00
23616;BME280;11985;49.404;7.734;2022-10-26T04:43:23;97179.88;;;10.74;100.00
23616;BME280;11985;49.404;7.734;2022-10-26T04:45:25;97182.72;;;10.73;100.00
23616;BME280;11985;49.404;7.734;2022-10-26T04:47:29;97178.66;;;10.70;100.00
23616;BME280;11985;49.404;7.734;2022-10-26T04:49:30;97183.94;;;10.70;100.00
23616;BME280;11985;49.404;7.734;2022-10-26T04:51:32;97183.13;;;10.70;100.00
23616;BME280;11985;49.404;7.734;2022-10-26T04:53:33;97187.19;;;10.72;100.00
23616;BME280;11985;49.404;7.734;2022-10-26T04:55:35;97182.28;;;10.76;100.00
23616;BME280;11985;49.404;7.734;2022-10-26T04:57:37;97187.94;;;10.86;100.00
23616;BME280;11985;49.404;7.734;2022-10-26T04:59:38;97185.88;;;10.95;100.00
23616;BME280;11985;49.404;7.734;2022-10-26T05:01:40;97184.81;;;11.02;100.00
23616;BME280;11985;49.404;7.734;2022-10-26T05:03:43;97187.22;;;11.10;100.00
23616;BME280;11985;49.404;7.734;2022-10-26T05:05:45;97185.19;;;11.13;100.00
23616;BME280;11985;49.404;7.734;2022-10-26T05:07:53;97189.44;;;11.14;100.00
23616;BME280;11985;49.404;7.734;2022-10-26T05:09:55;97196.31;;;11.15;100.00
23616;BME280;11985;49.404;7.734;2022-10-26T05:11:56;97200.56;;;11.16;100.00
23616;BME280;11985;49.404;7.734;2022-10-26T05:13:58;97201.41;;;11.16;100.00
23616;BME280;11985;49.404;7.734;2022-10-26T05:15:59;97204.84;;;11.17;100.00
23616;BME280;11985;49.404;7.734;2022-10-26T05:18:03;97205.19;;;11.20;100.00
23616;BME280;11985;49.404;7.734;2022-10-26T05:20:07;97204.16;;;11.28;100.00
23616;BME280;11985;49.404;7.734;2022-10-26T05:22:12;97210.63;;;11.32;100.00
23616;BME280;11985;49.404;7.734;2022-10-26T05:24:14;97216.88;;;11.37;100.00
23616;BME280;11985;49.404;7.734;2022-10-26T05:26:15;97223.75;;;11.45;100.00
23616;BME280;11985;49.404;7.734;2022-10-26T05:28:17;97224.09;;;11.55;100.00
23616;BME280;11985;49.404;7.734;2022-10-26T05:30:19;97228.91;;;11.58;100.00
23616;BME280;11985;49.404;7.734;2022-10-26T05:32:20;97229.91;;;11.64;100.00
23616;BME280;11985;49.404;7.734;2022-10-26T05:34:22;97231.28;;;11.73;100.00
23616;BME280;11985;49.404;7.734;2022-10-26T05:36:25;97241.59;;;11.81;100.00
23616;BME280;11985;49.404;7.734;2022-10-26T05:38:26;97237.72;;;11.84;100.00
23616;BME280;11985;49.404;7.734;2022-10-26T05:40:28;97238.25;;;11.93;100.00
23616;BME280;11985;49.404;7.734;2022-10-26T05:42:29;97244.16;;;11.95;100.00
23616;BME280;11985;49.404;7.734;2022-10-26T05:44:31;97244.72;;;11.97;100.00
23616;BME280;11985;49.404;7.734;2022-10-26T05:46:33;97239.03;;;12.00;100.00
23616;BME280;11985;49.404;7.734;2022-10-26T05:48:34;97241.66;;;12.00;100.00
23616;BME280;11985;49.404;7.734;2022-10-26T05:50:36;97245.69;;;12.02;100.00
23616;BME280;11985;49.404;7.734;2022-10-26T05:52:39;97247.69;;;12.07;100.00
23616;BME280;11985;49.404;7.734;2022-10-26T05:54:41;97243.97;;;12.14;100.00
23616;BME280;11985;49.404;7.734;2022-10-26T05:56:43;97238.63;;;12.21;100.00
23616;BME280;11985;49.404;7.734;2022-10-26T05:58:45;97240.44;;;12.27;100.00
23616;BME280;11985;49.404;7.734;2022-10-26T06:00:55;97250.31;;;12.32;100.00
23616;BME280;11985;49.404;7.734;2022-10-26T06:03:08;97263.25;;;12.40;100.00
23616;BME280;11985;49.404;7.734;2022-10-26T06:05:20;97262.81;;;12.43;100.00
23616;BME280;11985;49.404;7.734;2022-10-26T06:07:23;97269.50;;;12.46;100.00
23616;BME280;11985;49.404;7.734;2022-10-26T06:09:26;97265.03;;;12.46;100.00
23616;BME280;11985;49.404;7.734;2022-10-26T06:11:28;97271.34;;;12.45;100.00
23616;BME280;11985;49.404;7.734;2022-10-26T06:13:30;97265.91;;;12.40;100.00
23616;BME280;11985;49.404;7.734;2022-10-26T06:15:36;97275.28;;;12.36;100.00
23616;BME280;11985;49.404;7.734;2022-10-26T06:17:50;97287.91;;;12.34;100.00
23616;BME280;11985;49.404;7.734;2022-10-26T06:20:02;97284.06;;;12.30;100.00
23616;BME280;11985;49.404;7.734;2022-10-26T06:22:16;97287.13;;;12.27;100.00
23616;BME280;11985;49.404;7.734;2022-10-26T06:24:24;97282.53;;;12.22;100.00
23616;BME280;11985;49.404;7.734;2022-10-26T06:26:35;97287.41;;;12.19;100.00
23616;BME280;11985;49.404;7.734;2022-10-26T06:28:46;97296.78;;;12.14;100.00
23616;BME280;11985;49.404;7.734;2022-10-26T06:30:50;97290.34;;;12.10;100.00
23616;BME280;11985;49.404;7.734;2022-10-26T06:32:52;97296.59;;;12.09;100.00
23616;BME280;11985;49.404;7.734;2022-10-26T06:35:06;97293.56;;;12.12;100.00
23616;BME280;11985;49.404;7.734;2022-10-26T06:37:13;97299.63;;;12.13;100.00
23616;BME280;11985;49.404;7.734;2022-10-26T06:39:16;97298.84;;;12.12;100.00
23616;BME280;11985;49.404;7.734;2022-10-26T06:41:19;97299.59;;;12.20;100.00
23616;BME280;11985;49.404;7.734;2022-10-26T06:43:25;97305.91;;;12.19;100.00
23616;BME280;11985;49.404;7.734;2022-10-26T06:45:28;97308.69;;;12.24;100.00
23616;BME280;11985;49.404;7.734;2022-10-26T06:47:36;97309.72;;;12.23;100.00
23616;BME280;11985;49.404;7.734;2022-10-26T06:49:54;97313.41;;;12.22;100.00
23616;BME280;11985;49.404;7.734;2022-10-26T06:51:59;97308.47;;;12.25;100.00
23616;BME280;11985;49.404;7.734;2022-10-26T06:54:07;97316.19;;;12.27;100.00
23616;BME280;11985;49.404;7.734;2022-10-26T06:56:13;97327.28;;;12.35;100.00
23616;BME280;11985;49.404;7.734;2022-10-26T06:58:17;97324.00;;;12.40;100.00
23616;BME280;11985;49.404;7.734;2022-10-26T07:00:22;97332.69;;;12.47;100.00
23616;BME280;11985;49.404;7.734;2022-10-26T07:02:25;97324.94;;;12.52;100.00
23616;BME280;11985;49.404;7.734;2022-10-26T07:04:27;97327.31;;;12.60;100.00
23616;BME280;11985;49.404;7.734;2022-10-26T07:06:28;97331.28;;;12.69;100.00
23616;BME280;11985;49.404;7.734;2022-10-26T07:08:30;97332.06;;;12.70;100.00
23616;BME280;11985;49.404;7.734;2022-10-26T07:10:32;97343.47;;;12.71;100.00
23616;BME280;11985;49.404;7.734;2022-10-26T07:12:38;97343.03;;;12.74;100.00
23616;BME280;11985;49.404;7.734;2022-10-26T07:14:39;97342.59;;;12.77;100.00
23616;BME280;11985;49.404;7.734;2022-10-26T07:16:42;97342.16;;;12.80;100.00
23616;BME280;11985;49.404;7.734;2022-10-26T07:18:44;97344.59;;;12.81;100.00
23616;BME280;11985;49.404;7.734;2022-10-26T07:20:45;97339.53;;;12.80;100.00
23616;BME280;11985;49.404;7.734;2022-10-26T07:22:50;97340.09;;;12.82;100.00
23616;BME280;11985;49.404;7.734;2022-10-26T07:24:52;97349.88;;;12.81;100.00
23616;BME280;11985;49.404;7.734;2022-10-26T07:26:54;97349.06;;;12.81;100.00
23616;BME280;11985;49.404;7.734;2022-10-26T07:28:56;97349.50;;;12.78;100.00
23616;BME280;11985;49.404;7.734;2022-10-26T07:30:57;97358.44;;;12.77;100.00
23616;BME280;11985;49.404;7.734;2022-10-26T07:33:01;97358.44;;;12.77;100.00
23616;BME280;11985;49.404;7.734;2022-10-26T07:35:05;97365.38;;;12.78;100.00
23616;BME280;11985;49.404;7.734;2022-10-26T07:37:06;97368.59;;;12.80;100.00
23616;BME280;11985;49.404;7.734;2022-10-26T07:39:08;97382.84;;;12.79;100.00
23616;BME280;11985;49.404;7.734;2022-10-26T07:41:10;97377.31;;;12.80;100.00
23616;BME280;11985;49.404;7.734;2022-10-26T07:43:11;97381.97;;;12.85;100.00
23616;BME280;11985;49.404;7.734;2022-10-26T07:45:13;97377.88;;;12.89;100.00
23616;BME280;11985;49.404;7.734;2022-10-26T07:47:14;97390.81;;;12.97;100.00
23616;BME280;11985;49.404;7.734;2022-10-26T07:49:17;97395.22;;;13.03;100.00
23616;BME280;11985;49.404;7.734;2022-10-26T07:51:19;97390.69;;;13.10;100.00
23616;BME280;11985;49.404;7.734;2022-10-26T07:53:21;97390.97;;;13.20;100.00
23616;BME280;11985;49.404;7.734;2022-10-26T07:55:22;97391.31;;;13.31;100.00
23616;BME280;11985;49.404;7.734;2022-10-26T07:57:24;97389.53;;;13.43;100.00
23616;BME280;11985;49.404;7.734;2022-10-26T07:59:25;97394.09;;;13.54;100.00
23616;BME280;11985;49.404;7.734;2022-10-26T08:01:27;97401.09;;;13.67;100.00
23616;BME280;11985;49.404;7.734;2022-10-26T08:03:29;97409.09;;;13.79;100.00
23616;BME280;11985;49.404;7.734;2022-10-26T08:05:32;97404.09;;;13.89;100.00
23616;BME280;11985;49.404;7.734;2022-10-26T08:07:39;97405.97;;;14.00;100.00
23616;BME280;11985;49.404;7.734;2022-10-26T08:09:41;97410.94;;;14.08;100.00
23616;BME280;11985;49.404;7.734;2022-10-26T08:11:42;97417.56;;;14.17;100.00
23616;BME280;11985;49.404;7.734;2022-10-26T08:13:44;97414.59;;;14.25;100.00
23616;BME280;11985;49.404;7.734;2022-10-26T08:15:45;97415.75;;;14.30;100.00
23616;BME280;11985;49.404;7.734;2022-10-26T08:17:47;97415.31;;;14.33;100.00
23616;BME280;11985;49.404;7.734;2022-10-26T08:19:49;97424.66;;;14.35;100.00
23616;BME280;11985;49.404;7.734;2022-10-26T08:21:52;97428.69;;;14.38;99.94
23616;BME280;11985;49.404;7.734;2022-10-26T08:23:53;97431.94;;;14.40;99.76
23616;BME280;11985;49.404;7.734;2022-10-26T08:25:57;97437.22;;;14.40;99.64
23616;BME280;11985;49.404;7.734;2022-10-26T08:28:00;97448.63;;;14.40;99.40
23616;BME280;11985;49.404;7.734;2022-10-26T08:30:02;97446.34;;;14.44;99.29
23616;BME280;11985;49.404;7.734;2022-10-26T08:32:04;97440.19;;;14.50;99.20
23616;BME280;11985;49.404;7.734;2022-10-26T08:34:06;97430.16;;;14.52;99.16
23616;BME280;11985;49.404;7.734;2022-10-26T08:36:07;97437.41;;;14.57;98.98
23616;BME280;11985;49.404;7.734;2022-10-26T08:38:10;97430.84;;;14.59;98.77
23616;BME280;11985;49.404;7.734;2022-10-26T08:40:14;97439.72;;;14.65;98.56
23616;BME280;11985;49.404;7.734;2022-10-26T08:42:21;97436.53;;;14.74;98.22
23616;BME280;11985;49.404;7.734;2022-10-26T08:44:29;97448.44;;;14.84;98.33
23616;BME280;11985;49.404;7.734;2022-10-26T08:46:35;97450.16;;;14.90;98.14
23616;BME280;11985;49.404;7.734;2022-10-26T08:48:40;97452.47;;;14.98;98.25
23616;BME280;11985;49.404;7.734;2022-10-26T08:50:47;97450.75;;;15.03;97.42
23616;BME280;11985;49.404;7.734;2022-10-26T08:52:55;97447.28;;;15.03;96.39
23616;BME280;11985;49.404;7.734;2022-10-26T08:55:03;97449.13;;;15.02;96.33
23616;BME280;11985;49.404;7.734;2022-10-26T08:57:16;97463.56;;;15.07;96.30
23616;BME280;11985;49.404;7.734;2022-10-26T08:59:25;97460.22;;;15.11;96.08
23616;BME280;11985;49.404;7.734;2022-10-26T09:01:30;97455.63;;;15.18;96.09
23616;BME280;11985;49.404;7.734;2022-10-26T09:03:32;97465.31;;;15.24;95.86
23616;BME280;11985;49.404;7.734;2022-10-26T09:05:38;97463.22;;;15.26;95.38
23616;BME280;11985;49.404;7.734;2022-10-26T09:07:51;97469.44;;;15.32;94.91
23616;BME280;11985;49.404;7.734;2022-10-26T09:10:03;97472.00;;;15.39;94.72
23616;BME280;11985;49.404;7.734;2022-10-26T09:12:13;97471.09;;;15.45;94.43
23616;BME280;11985;49.404;7.734;2022-10-26T09:14:19;97473.84;;;15.50;93.97
23616;BME280;11985;49.404;7.734;2022-10-26T09:16:26;97473.84;;;15.50;93.67
23616;BME280;11985;49.404;7.734;2022-10-26T09:18:40;97478.13;;;15.51;93.70
23616;BME280;11985;49.404;7.734;2022-10-26T09:21:03;97476.50;;;15.62;93.64
23616;BME280;11985;49.404;7.734;2022-10-26T09:23:18;97479.63;;;15.70;93.35
23616;BME280;11985;49.404;7.734;2022-10-26T09:25:32;97487.38;;;15.72;92.37
23616;BME280;11985;49.404;7.734;2022-10-26T09:27:41;97483.81;;;15.66;92.39
23616;BME280;11985;49.404;7.734;2022-10-26T09:29:43;97488.53;;;15.64;92.56
23616;BME280;11985;49.404;7.734;2022-10-26T09:31:46;97484.81;;;15.65;92.61
23616;BME280;11985;49.404;7.734;2022-10-26T09:33:50;97491.16;;;15.64;92.34
23616;BME280;11985;49.404;7.734;2022-10-26T09:35:56;97497.19;;;15.71;92.77
23616;BME280;11985;49.404;7.734;2022-10-26T09:38:05;97504.09;;;15.84;92.89
23616;BME280;11985;49.404;7.734;2022-10-26T09:40:13;97497.47;;;15.98;92.60
23616;BME280;11985;49.404;7.734;2022-10-26T09:42:22;97496.41;;;16.11;92.23
23616;BME280;11985;49.404;7.734;2022-10-26T09:44:30;97506.44;;;16.21;91.63
23616;BME280;11985;49.404;7.734;2022-10-26T09:46:43;97508.88;;;16.22;90.72
23616;BME280;11985;49.404;7.734;2022-10-26T09:48:49;97512.09;;;16.24;90.58
23616;BME280;11985;49.404;7.734;2022-10-26T09:50:52;97517.59;;;16.34;90.93
23616;BME280;11985;49.404;7.734;2022-10-26T09:52:56;97521.19;;;16.40;90.22
23616;BME280;11985;49.404;7.734;2022-10-26T09:54:57;97523.59;;;16.42;89.65
23616;BME280;11985;49.404;7.734;2022-10-26T09:56:59;97535.28;;;16.41;89.30
23616;BME280;11985;49.404;7.734;2022-10-26T09:59:04;97531.47;;;16.36;88.66
23616;BME280;11985;49.404;7.734;2022-10-26T10:01:06;97544.09;;;16.29;88.92
23616;BME280;11985;49.404;7.734;2022-10-26T10:03:25;97536.13;;;16.29;89.11
23616;BME280;11985;49.404;7.734;2022-10-26T10:05:29;97541.28;;;16.36;89.10
23616;BME280;11985;49.404;7.734;2022-10-26T10:07:31;97550.75;;;16.44;88.87
23616;BME280;11985;49.404;7.734;2022-10-26T10:09:32;97550.28;;;16.47;88.14
23616;BME280;11985;49.404;7.734;2022-10-26T10:11:38;97551.78;;;16.43;87.92
23616;BME280;11985;49.404;7.734;2022-10-26T10:13:42;97556.06;;;16.44;87.90
23616;BME280;11985;49.404;7.734;2022-10-26T10:15:53;97555.97;;;16.39;87.71
23616;BME280;11985;49.404;7.734;2022-10-26T10:17:55;97561.84;;;16.41;88.21
23616;BME280;11985;49.404;7.734;2022-10-26T10:20:06;97561.75;;;16.35;87.73
23616;BME280;11985;49.404;7.734;2022-10-26T10:22:18;97569.72;;;16.35;87.51
23616;BME280;11985;49.404;7.734;2022-10-26T10:24:24;97571.44;;;16.42;87.25
23616;BME280;11985;49.404;7.734;2022-10-26T10:26:26;97576.28;;;16.45;87.31
23616;BME280;11985;49.404;7.734;2022-10-26T10:28:28;97575.13;;;16.41;86.48
23616;BME280;11985;49.404;7.734;2022-10-26T10:30:32;97580.59;;;16.34;86.55
23616;BME280;11985;49.404;7.734;2022-10-26T10:32:35;97583.00;;;16.35;86.96
23616;BME280;11985;49.404;7.734;2022-10-26T10:34:36;97578.84;;;16.40;87.38
23616;BME280;11985;49.404;7.734;2022-10-26T10:36:38;97584.06;;;16.34;87.16
23616;BME280;11985;49.404;7.734;2022-10-26T10:38:42;97594.69;;;16.34;87.38
23616;BME280;11985;49.404;7.734;2022-10-26T10:40:49;97586.72;;;16.34;87.52
23616;BME280;11985;49.404;7.734;2022-10-26T10:42:54;97591.09;;;16.41;87.77
23616;BME280;11985;49.404;7.734;2022-10-26T10:45:05;97581.94;;;16.48;87.59
23616;BME280;11985;49.404;7.734;2022-10-26T10:47:17;97591.31;;;16.51;87.48
23616;BME280;11985;49.404;7.734;2022-10-26T10:49:24;97583.44;;;16.56;87.73
23616;BME280;11985;49.404;7.734;2022-10-26T10:51:29;97594.16;;;16.61;87.21
23616;BME280;11985;49.404;7.734;2022-10-26T10:53:37;97596.84;;;16.61;86.79
23616;BME280;11985;49.404;7.734;2022-10-26T10:55:53;97591.50;;;16.61;86.56
23616;BME280;11985;49.404;7.734;2022-10-26T10:58:06;97587.13;;;16.55;86.66
23616;BME280;11985;49.404;7.734;2022-10-26T11:00:10;97591.50;;;16.61;86.90